Time;durP1;ratioP1;P1;durP2;ratioP2;P2;SDS_P1;SDS_P2;PMS_P1;PMS_P2;Temp;Humidity;BMP_temperature;BMP_pressure;BME280_temperature;BME280_humidity;BME280_pressure;Samples;Min_cycle;Max_cycle;Signal;HPM_P1;HPM_P2
2022/10/04 00:01:11;;;;;;;;;;;;;;;25.52;45.78;94796.13;5003172;28;7017;-60
2022/10/04 00:03:45;;;;;;;;;;;;;;;25.51;44.75;94800.16;5005732;28;7018;-60
2022/10/04 00:06:24;;;;;;;;;;;;;;;25.53;44.92;94797.66;4983079;28;6998;-60
2022/10/04 00:09:04;;;;;;;;;;;;;;;25.49;45.56;94797.13;5006216;28;7091;-60
2022/10/04 00:11:42;;;;;;;;;;;;;;;25.51;44.99;94789.13;5004707;28;7295;-60
2022/10/04 00:14:21;;;;;;;;;;;;;;;25.51;44.69;94785.63;4985981;28;7206;-60
2022/10/04 00:16:50;;;;;;;;;;;;;;;25.52;45.16;94784.34;5008260;28;6999;-60
2022/10/04 00:19:18;;;;;;;;;;;;;;;25.50;44.83;94787.63;5027560;28;7447;-60
2022/10/04 00:22:09;;;;;;;;;;;;;;;25.51;44.67;94791.91;5053259;28;9558;-60
2022/10/04 00:24:38;;;;;;;;;;;;;;;25.50;45.56;94792.38;5067225;28;7310;-60
2022/10/04 00:27:19;;;;;;;;;;;;;;;25.52;45.27;94803.63;5058041;28;7256;-59
2022/10/04 00:30:26;;;;;;;;;;;;;;;25.50;45.11;94797.88;5041741;28;7204;-60
2022/10/04 00:33:03;;;;;;;;;;;;;;;25.47;45.77;94793.38;4964928;28;7253;-59
2022/10/04 00:35:31;;;;;;;;;;;;;;;25.49;45.33;94790.88;4964816;28;7045;-60
2022/10/04 00:38:14;;;;;;;;;;;;;;;25.49;45.21;94793.63;4971997;28;9095;-60
2022/10/04 00:41:07;;;;;;;;;;;;;;;25.47;44.79;94793.38;4972655;28;7271;-60
2022/10/04 00:44:18;;;;;;;;;;;;;;;25.47;44.73;94790.63;4949086;28;7393;-60
2022/10/04 00:46:59;;;;;;;;;;;;;;;25.46;45.70;94791.88;4945868;28;7178;-60
2022/10/04 00:49:43;;;;;;;;;;;;;;;25.46;44.98;94795.38;4935847;28;9050;-60
2022/10/04 00:52:29;;;;;;;;;;;;;;;25.46;45.20;94798.13;4947949;28;7245;-60
2022/10/04 00:55:05;;;;;;;;;;;;;;;25.43;44.90;94794.38;4945341;28;8475;-60
2022/10/04 00:57:53;;;;;;;;;;;;;;;25.43;45.07;94790.88;4944656;28;9416;-60
2022/10/04 01:00:23;;;;;;;;;;;;;;;25.43;45.65;94793.63;4925975;28;7199;-60
2022/10/04 01:03:05;;;;;;;;;;;;;;;25.44;45.76;94795.13;4948323;28;7398;-60
2022/10/04 01:05:47;;;;;;;;;;;;;;;25.41;45.43;94793.34;4966895;28;9574;-60
2022/10/04 01:08:47;;;;;;;;;;;;;;;25.41;45.26;94791.34;4974217;28;7287;-60
2022/10/04 01:11:27;;;;;;;;;;;;;;;25.39;44.95;94788.34;4992393;28;8696;-60
2022/10/04 01:14:13;;;;;;;;;;;;;;;25.40;45.24;94789.09;4994060;28;7259;-60
2022/10/04 01:16:40;;;;;;;;;;;;;;;25.39;45.61;94782.09;4969463;28;7285;-60
2022/10/04 01:19:48;;;;;;;;;;;;;;;25.40;45.06;94786.34;4974999;28;7043;-60
2022/10/04 01:22:34;;;;;;;;;;;;;;;25.39;45.34;94780.09;4989148;28;8716;-60
2022/10/04 01:25:05;;;;;;;;;;;;;;;25.36;45.35;94778.31;5040185;28;7286;-60
2022/10/04 01:27:37;;;;;;;;;;;;;;;25.37;44.67;94774.31;5053575;28;7325;-60
2022/10/04 01:30:08;;;;;;;;;;;;;;;25.37;45.33;94774.31;5051397;28;7633;-60
2022/10/04 01:32:37;;;;;;;;;;;;;;;25.37;45.11;94768.06;5043267;28;7564;-60
2022/10/04 01:35:14;;;;;;;;;;;;;;;25.35;44.62;94771.31;5052021;28;7249;-60
2022/10/04 01:37:45;;;;;;;;;;;;;;;25.36;45.77;94769.31;5072450;28;9102;-60
2022/10/04 01:40:30;;;;;;;;;;;;;;;25.35;44.72;94760.31;5037351;28;7643;-60
2022/10/04 01:43:15;;;;;;;;;;;;;;;25.35;45.28;94754.81;5051450;28;7239;-60
2022/10/04 01:46:28;;;;;;;;;;;;;;;25.35;45.54;94759.56;5048286;28;9603;-60
2022/10/04 01:49:25;;;;;;;;;;;;;;;25.32;45.38;94755.78;4957351;28;8900;-60
2022/10/04 01:52:22;;;;;;;;;;;;;;;25.31;45.14;94750.78;4947553;28;7183;-60
2022/10/04 01:55:22;;;;;;;;;;;;;;;25.33;44.74;94759.31;4928862;29;9297;-60
2022/10/04 01:58:02;;;;;;;;;;;;;;;25.32;45.50;94766.81;4912269;29;9256;-60
2022/10/04 02:00:46;;;;;;;;;;;;;;;25.32;45.17;94755.78;4891997;29;7185;-60
2022/10/04 02:03:29;;;;;;;;;;;;;;;25.31;45.38;94759.06;4908044;29;7292;-60
2022/10/04 02:06:02;;;;;;;;;;;;;;;25.30;45.41;94761.06;4916051;29;8257;-60
2022/10/04 02:08:57;;;;;;;;;;;;;;;25.31;45.67;94751.56;4893601;29;6979;-60
2022/10/04 02:11:30;;;;;;;;;;;;;;;25.31;45.47;94759.06;4867577;29;7272;-60
2022/10/04 02:14:17;;;;;;;;;;;;;;;25.31;44.75;94753.56;4874755;29;7073;-60
2022/10/04 02:17:13;;;;;;;;;;;;;;;25.30;44.82;94757.53;4863803;29;7648;-60
2022/10/04 02:19:43;;;;;;;;;;;;;;;25.29;44.92;94751.28;4871274;29;7280;-60
2022/10/04 02:22:11;;;;;;;;;;;;;;;25.29;45.40;94750.53;4856480;29;7051;-60
2022/10/04 02:24:43;;;;;;;;;;;;;;;25.28;45.15;94749.03;4854050;29;7051;-60
2022/10/04 02:27:09;;;;;;;;;;;;;;;25.26;44.87;94751.53;4897683;29;7507;-60
2022/10/04 02:29:35;;;;;;;;;;;;;;;25.26;45.67;94754.28;4912011;29;7183;-60
2022/10/04 02:34:54;;;;;;;;;;;;;;;25.24;44.77;94746.53;4973561;28;9569;-60
2022/10/04 02:37:27;;;;;;;;;;;;;;;25.25;45.25;94745.28;4982002;28;7482;-60
2022/10/04 02:40:04;;;;;;;;;;;;;;;25.22;45.25;94745.53;4988041;28;6865;-60
2022/10/04 02:43:10;;;;;;;;;;;;;;;25.24;45.45;94735.53;4973085;28;7574;-60
2022/10/04 02:46:01;;;;;;;;;;;;;;;25.24;45.68;94745.78;4964039;28;7252;-60
2022/10/04 02:48:48;;;;;;;;;;;;;;;25.21;44.99;94739.28;5042237;28;7295;-60
2022/10/04 02:51:32;;;;;;;;;;;;;;;25.20;45.40;94748.78;5052579;28;9447;-60
2022/10/04 02:54:06;;;;;;;;;;;;;;;25.21;45.65;94744.00;5052560;28;9379;-60
2022/10/04 02:56:53;;;;;;;;;;;;;;;25.22;45.54;94751.03;5052584;28;9095;-60
2022/10/04 02:59:23;;;;;;;;;;;;;;;25.20;45.62;94742.53;5028611;28;7001;-60
2022/10/04 03:02:25;;;;;;;;;;;;;;;25.18;45.47;94731.28;5069899;28;9751;-60
2022/10/04 03:04:59;;;;;;;;;;;;;;;25.18;45.80;94742.28;5053092;28;7600;-60
2022/10/04 03:07:50;;;;;;;;;;;;;;;25.18;44.81;94734.03;5063431;28;7271;-60
2022/10/04 03:10:29;;;;;;;;;;;;;;;25.17;45.72;94729.75;5050656;28;7221;-60
2022/10/04 03:13:06;;;;;;;;;;;;;;;25.16;44.90;94722.75;5046321;28;8808;-60
2022/10/04 03:15:35;;;;;;;;;;;;;;;25.17;45.69;94724.25;5051825;28;8678;-60
2022/10/04 03:18:01;;;;;;;;;;;;;;;25.18;45.03;94717.50;5053125;28;8216;-60
2022/10/04 03:20:28;;;;;;;;;;;;;;;25.16;45.69;94720.00;5049382;28;7055;-60
2022/10/04 03:22:58;;;;;;;;;;;;;;;25.16;45.51;94717.25;5051900;28;7218;-60
2022/10/04 03:25:36;;;;;;;;;;;;;;;25.15;45.13;94724.75;5052371;28;7301;-60
2022/10/04 03:28:06;;;;;;;;;;;;;;;25.13;45.55;94713.50;5054704;28;7335;-60
2022/10/04 03:30:35;;;;;;;;;;;;;;;25.16;45.33;94714.50;5062175;28;7833;-60
2022/10/04 03:33:06;;;;;;;;;;;;;;;25.16;45.32;94712.50;5062051;28;7357;-60
2022/10/04 03:35:54;;;;;;;;;;;;;;;25.14;45.05;94711.50;5067282;28;7068;-60
2022/10/04 03:38:35;;;;;;;;;;;;;;;25.12;45.10;94711.97;5064848;28;7569;-60
2022/10/04 03:41:15;;;;;;;;;;;;;;;25.14;45.26;94708.75;5050171;28;7533;-60
2022/10/04 03:43:53;;;;;;;;;;;;;;;25.13;45.69;94713.50;5043604;28;6938;-60
2022/10/04 03:46:29;;;;;;;;;;;;;;;25.11;44.83;94707.75;5050759;28;7233;-60
2022/10/04 03:48:58;;;;;;;;;;;;;;;25.12;45.23;94714.72;5031494;28;7227;-60
2022/10/04 03:51:28;;;;;;;;;;;;;;;25.10;44.91;94714.50;5049446;28;9786;-60
2022/10/04 03:54:00;;;;;;;;;;;;;;;25.11;45.62;94712.50;5056083;28;9152;-60
2022/10/04 03:56:35;;;;;;;;;;;;;;;25.10;45.80;94722.00;5042165;28;6996;-60
2022/10/04 03:59:06;;;;;;;;;;;;;;;25.10;45.62;94731.00;5063235;28;7240;-60
2022/10/04 04:01:55;;;;;;;;;;;;;;;25.09;45.56;94732.25;5051847;28;7229;-60
2022/10/04 04:04:54;;;;;;;;;;;;;;;25.09;44.96;94731.50;5053586;28;7270;-60
2022/10/04 04:07:38;;;;;;;;;;;;;;;25.08;45.84;94727.25;5059716;28;7210;-60
2022/10/04 04:10:20;;;;;;;;;;;;;;;25.08;45.40;94730.00;5045299;28;8615;-60
2022/10/04 04:13:11;;;;;;;;;;;;;;;25.06;45.09;94727.00;5047857;28;7143;-60
2022/10/04 04:15:42;;;;;;;;;;;;;;;25.08;44.81;94730.00;5050879;28;8725;-60
2022/10/04 04:18:22;;;;;;;;;;;;;;;25.04;45.67;94730.25;5059270;28;7393;-60
2022/10/04 04:20:57;;;;;;;;;;;;;;;25.05;45.32;94723.50;5064367;28;9043;-60
2022/10/04 04:23:35;;;;;;;;;;;;;;;25.06;45.20;94732.50;5051359;28;7544;-60
2022/10/04 04:26:16;;;;;;;;;;;;;;;25.04;45.72;94733.00;5049789;28;7082;-60
2022/10/04 04:28:52;;;;;;;;;;;;;;;25.06;45.95;94727.00;5065278;28;7035;-60
2022/10/04 04:31:42;;;;;;;;;;;;;;;25.06;44.90;94727.75;5064418;28;7363;-60
2022/10/04 04:34:49;;;;;;;;;;;;;;;25.05;44.86;94731.75;5048851;28;7236;-60
2022/10/04 04:37:19;;;;;;;;;;;;;;;25.04;45.64;94718.47;4971234;28;7823;-60
2022/10/04 04:39:55;;;;;;;;;;;;;;;25.02;45.89;94718.22;4952862;28;8347;-60
2022/10/04 04:42:27;;;;;;;;;;;;;;;25.01;45.91;94719.50;4958574;28;7739;-60
2022/10/04 04:45:06;;;;;;;;;;;;;;;25.02;45.21;94720.97;4959112;28;7076;-60
2022/10/04 04:47:47;;;;;;;;;;;;;;;25.03;45.35;94728.75;4952059;28;9409;-60
2022/10/04 04:50:40;;;;;;;;;;;;;;;25.04;45.76;94730.25;4955703;28;7181;-60
2022/10/04 04:53:28;;;;;;;;;;;;;;;25.06;46.13;94730.50;4968061;28;7205;-60
2022/10/04 04:55:59;;;;;;;;;;;;;;;25.06;45.69;94729.75;4961961;28;7202;-60
2022/10/04 04:58:34;;;;;;;;;;;;;;;25.05;46.01;94731.00;4966345;28;7236;-60
2022/10/04 05:01:18;;;;;;;;;;;;;;;25.06;45.12;94724.25;4969122;28;7238;-60
2022/10/04 05:04:29;;;;;;;;;;;;;;;25.05;45.42;94728.25;4963604;28;9135;-59
2022/10/04 05:07:42;;;;;;;;;;;;;;;25.02;45.18;94732.75;4918515;28;9308;-60
2022/10/04 05:10:49;;;;;;;;;;;;;;;25.07;45.34;94740.28;4988053;28;7089;-60
2022/10/04 05:13:52;;;;;;;;;;;;;;;25.05;45.79;94728.25;4975493;28;8831;-60
2022/10/04 05:16:48;;;;;;;;;;;;;;;25.04;45.54;94732.25;4980157;28;7239;-59
2022/10/04 05:19:38;;;;;;;;;;;;;;;25.04;44.78;94735.00;4984746;28;6852;-59
2022/10/04 05:22:11;;;;;;;;;;;;;;;25.04;45.25;94740.50;4989471;28;7357;-60
2022/10/04 05:24:43;;;;;;;;;;;;;;;25.04;45.77;94751.50;4974708;28;6932;-60
2022/10/04 05:27:16;;;;;;;;;;;;;;;25.03;45.01;94750.03;4992326;28;8846;-60
2022/10/04 05:30:01;;;;;;;;;;;;;;;25.03;45.04;94750.78;4975264;28;10181;-60
2022/10/04 05:32:46;;;;;;;;;;;;;;;25.03;45.71;94752.78;4986612;28;7155;-60
2022/10/04 05:35:18;;;;;;;;;;;;;;;24.99;45.58;94752.28;4981138;28;6887;-60
2022/10/04 05:37:55;;;;;;;;;;;;;;;24.97;45.57;94754.78;4990575;28;7269;-60
2022/10/04 05:40:43;;;;;;;;;;;;;;;24.96;45.16;94753.25;4983325;28;7249;-60
2022/10/04 05:43:31;;;;;;;;;;;;;;;24.93;45.05;94749.50;5008186;28;7192;-60
2022/10/04 05:46:33;;;;;;;;;;;;;;;24.97;46.15;94752.03;5049650;28;9031;-59
2022/10/04 05:49:22;;;;;;;;;;;;;;;24.95;45.32;94757.25;5039184;28;7221;-60
2022/10/04 05:52:00;;;;;;;;;;;;;;;24.97;45.89;94754.78;5056174;28;7223;-60
2022/10/04 05:54:34;;;;;;;;;;;;;;;24.95;45.82;94755.25;5045337;28;8747;-60
2022/10/04 05:57:23;;;;;;;;;;;;;;;24.95;46.12;94752.50;5052174;28;7044;-61
2022/10/04 06:00:13;;;;;;;;;;;;;;;24.92;45.75;94758.25;5047369;28;7120;-60
2022/10/04 06:03:23;;;;;;;;;;;;;;;24.90;46.59;94750.50;5058821;28;7175;-60
2022/10/04 06:05:52;;;;;;;;;;;;;;;24.92;46.16;94752.75;5067212;28;7433;-60
2022/10/04 06:08:39;;;;;;;;;;;;;;;24.93;45.70;94751.50;5071402;28;7229;-60
2022/10/04 06:11:40;;;;;;;;;;;;;;;24.95;46.41;94760.00;5052229;28;7304;-60
2022/10/04 06:14:42;;;;;;;;;;;;;;;24.94;46.37;94756.50;5067743;28;9045;-60
2022/10/04 06:17:29;;;;;;;;;;;;;;;24.94;46.14;94755.75;5063981;28;7290;-60
2022/10/04 06:20:24;;;;;;;;;;;;;;;24.93;46.55;94762.50;5056800;28;8654;-60
2022/10/04 06:23:21;;;;;;;;;;;;;;;24.94;46.49;94758.50;5050416;28;7089;-60
2022/10/04 06:26:08;;;;;;;;;;;;;;;24.94;46.17;94758.50;5065535;28;7148;-61
2022/10/04 06:28:50;;;;;;;;;;;;;;;24.94;46.02;94758.50;5040837;28;7340;-60
2022/10/04 06:31:25;;;;;;;;;;;;;;;24.93;46.48;94763.25;5070945;28;7324;-60
2022/10/04 06:34:42;;;;;;;;;;;;;;;24.96;46.33;94767.00;5043496;28;6981;-60
2022/10/04 06:37:47;;;;;;;;;;;;;;;24.96;45.91;94772.53;4981308;28;7326;-60
2022/10/04 06:40:28;;;;;;;;;;;;;;;24.96;46.57;94773.28;4976509;28;7040;-60
2022/10/04 06:46:41;;;;;;;;;;;;;;;24.94;45.65;94786.78;4975384;28;9931;-60
2022/10/04 06:49:29;;;;;;;;;;;;;;;24.94;45.74;94788.78;4978740;28;8611;-60
2022/10/04 06:52:21;;;;;;;;;;;;;;;24.96;45.80;94789.03;4974860;28;7255;-60
2022/10/04 06:55:08;;;;;;;;;;;;;;;24.95;46.50;94793.00;4985380;28;7204;-60
2022/10/04 07:01:03;;;;;;;;;;;;;;;24.92;46.42;94794.03;4976090;28;8891;-60
2022/10/04 07:03:46;;;;;;;;;;;;;;;24.92;46.60;94791.28;4974557;28;9416;-60
2022/10/04 07:06:12;;;;;;;;;;;;;;;24.91;46.41;94798.00;4978732;28;7619;-60
2022/10/04 07:09:04;;;;;;;;;;;;;;;24.92;45.91;94791.28;4960875;28;8179;-61
2022/10/04 07:12:00;;;;;;;;;;;;;;;24.91;46.36;94790.50;4988816;28;7031;-60
2022/10/04 07:14:43;;;;;;;;;;;;;;;24.91;46.37;94787.00;5042302;28;7423;-60
2022/10/04 07:17:25;;;;;;;;;;;;;;;24.91;46.65;94789.75;5045792;28;7401;-60
2022/10/04 07:19:56;;;;;;;;;;;;;;;24.92;46.36;94794.03;5041500;28;9109;-60
2022/10/04 07:22:41;;;;;;;;;;;;;;;24.96;46.61;94789.78;5053228;28;7291;-60
2022/10/04 07:25:27;;;;;;;;;;;;;;;24.97;45.99;94801.56;5066580;28;7197;-60
2022/10/04 07:31:10;;;;;;;;;;;;;;;24.96;46.70;94800.03;5063926;28;6946;-60
2022/10/04 07:33:48;;;;;;;;;;;;;;;24.93;46.65;94804.53;5038696;28;6971;-60
2022/10/04 07:36:52;;;;;;;;;;;;;;;24.91;46.09;94801.53;5059973;28;7164;-60
2022/10/04 07:39:37;;;;;;;;;;;;;;;24.91;45.92;94804.28;5002661;28;7298;-60
2022/10/04 07:42:47;;;;;;;;;;;;;;;24.90;46.36;94800.03;5000515;28;7246;-60
2022/10/04 07:45:24;;;;;;;;;;;;;;;24.87;45.86;94803.00;4992631;28;7244;-60
2022/10/04 07:48:03;;;;;;;;;;;;;;;24.89;46.55;94806.00;4993257;28;9057;-60
2022/10/04 07:50:40;;;;;;;;;;;;;;;24.89;45.95;94808.75;5008150;28;6932;-60
2022/10/04 07:53:31;;;;;;;;;;;;;;;24.90;46.60;94810.28;5010602;28;7359;-60
2022/10/04 07:56:22;;;;;;;;;;;;;;;24.89;46.42;94811.50;4992517;28;7228;-60
2022/10/04 07:59:09;;;;;;;;;;;;;;;24.94;46.13;94816.28;4991094;28;9646;-60
2022/10/04 08:01:47;;;;;;;;;;;;;;;24.95;45.80;94815.78;4984613;28;6973;-60
2022/10/04 08:04:45;;;;;;;;;;;;;;;24.99;46.11;94812.81;4992705;28;9517;-60
2022/10/04 08:07:25;;;;;;;;;;;;;;;24.98;45.37;94806.56;5005357;28;8479;-61
2022/10/04 08:10:05;;;;;;;;;;;;;;;24.97;46.00;94821.53;4991513;28;7227;-60
2022/10/04 08:13:26;;;;;;;;;;;;;;;24.95;46.34;94824.03;5007049;28;7002;-60
2022/10/04 08:16:01;;;;;;;;;;;;;;;24.96;46.17;94816.53;4973729;28;7294;-60
2022/10/04 08:18:38;;;;;;;;;;;;;;;24.97;46.28;94823.56;4991089;28;7260;-60
2022/10/04 08:21:08;;;;;;;;;;;;;;;25.00;46.30;94830.81;4988999;28;7907;-60
2022/10/04 08:23:58;;;;;;;;;;;;;;;25.00;45.61;94826.06;4997396;28;7922;-60
2022/10/04 08:26:48;;;;;;;;;;;;;;;25.02;45.95;94833.81;4997543;28;7078;-60
2022/10/04 08:29:43;;;;;;;;;;;;;;;25.00;45.83;94828.06;4975243;28;7486;-60
2022/10/04 08:32:22;;;;;;;;;;;;;;;24.97;45.63;94823.56;4972978;28;8631;-60
2022/10/04 08:35:27;;;;;;;;;;;;;;;24.92;45.82;94832.53;4995976;28;9147;-60
2022/10/04 08:38:20;;;;;;;;;;;;;;;24.89;45.84;94844.53;4973363;28;7197;-60
2022/10/04 08:41:35;;;;;;;;;;;;;;;24.85;46.82;94844.78;4991380;28;7242;-60
2022/10/04 08:44:41;;;;;;;;;;;;;;;24.87;46.02;94847.78;4993692;28;7069;-60
2022/10/04 08:47:59;;;;;;;;;;;;;;;24.87;45.89;94845.03;5054067;28;7074;-60
2022/10/04 08:51:07;;;;;;;;;;;;;;;24.86;46.17;94845.53;5053921;28;8318;-60
2022/10/04 08:53:51;;;;;;;;;;;;;;;24.84;46.68;94832.25;5049518;28;9759;-60
2022/10/04 08:56:56;;;;;;;;;;;;;;;24.85;46.20;94827.50;5067387;28;7366;-60
2022/10/04 09:00:04;;;;;;;;;;;;;;;24.85;46.24;94828.28;5053449;28;6995;-60
2022/10/04 09:03:25;;;;;;;;;;;;;;;24.93;46.91;94834.03;5066320;28;7618;-60
2022/10/04 09:06:48;;;;;;;;;;;;;;;24.93;46.06;94828.53;5060948;28;7245;-60
2022/10/04 09:09:41;;;;;;;;;;;;;;;24.94;46.57;94832.81;5064555;28;7236;-60
2022/10/04 09:12:35;;;;;;;;;;;;;;;24.94;46.06;94836.31;5044556;28;6999;-60
2022/10/04 09:15:26;;;;;;;;;;;;;;;24.95;46.94;94837.81;5062708;28;6995;-60
2022/10/04 09:18:15;;;;;;;;;;;;;;;24.97;46.33;94829.06;5048448;28;8516;-60
2022/10/04 09:21:02;;;;;;;;;;;;;;;25.00;45.55;94828.06;5052596;28;7247;-60
2022/10/04 09:23:31;;;;;;;;;;;;;;;24.98;46.02;94825.81;5049957;28;8480;-60
2022/10/04 09:25:56;;;;;;;;;;;;;;;24.97;45.95;94823.56;5063350;28;9423;-60
2022/10/04 09:28:47;;;;;;;;;;;;;;;24.98;45.59;94819.56;5044991;28;7178;-61
2022/10/04 09:31:36;;;;;;;;;;;;;;;24.99;45.43;94824.56;5060157;28;9380;-60
2022/10/04 09:34:41;;;;;;;;;;;;;;;24.99;45.23;94816.28;5038550;28;9326;-60
2022/10/04 09:37:57;;;;;;;;;;;;;;;25.01;46.21;94826.81;4967300;28;7705;-60
2022/10/04 09:41:02;;;;;;;;;;;;;;;25.01;45.19;94824.81;4987376;28;7226;-60
2022/10/04 09:44:03;;;;;;;;;;;;;;;25.01;45.29;94818.56;4991696;28;7257;-60
2022/10/04 09:47:09;;;;;;;;;;;;;;;24.99;46.30;94816.28;4889294;29;9366;-60
2022/10/04 09:50:08;;;;;;;;;;;;;;;24.97;46.23;94815.31;4861042;29;7371;-60
2022/10/04 09:52:47;;;;;;;;;;;;;;;24.97;46.19;94832.56;4869465;29;7476;-60
2022/10/04 09:55:26;;;;;;;;;;;;;;;24.98;45.44;94827.81;4851751;29;7343;-60
2022/10/04 09:58:42;;;;;;;;;;;;;;;24.96;46.21;94816.53;4877217;29;7303;-60
2022/10/04 10:01:30;;;;;;;;;;;;;;;24.93;46.58;94818.28;4870805;29;6990;-60
2022/10/04 10:08:22;;;;;;;;;;;;;;;24.95;46.58;94821.28;4834477;29;7688;-60
2022/10/04 10:14:44;;;;;;;;;;;;;;;24.95;45.77;94820.53;4805396;29;7835;-60
2022/10/04 10:17:22;;;;;;;;;;;;;;;24.93;46.30;94826.53;4820879;29;8053;-60
2022/10/04 10:20:13;;;;;;;;;;;;;;;24.95;46.26;94824.03;4821528;29;8463;-60
2022/10/04 10:23:17;;;;;;;;;;;;;;;24.98;45.63;94834.06;4834977;29;7742;-60
2022/10/04 10:25:44;;;;;;;;;;;;;;;24.96;46.13;94839.31;4870853;29;8579;-60
2022/10/04 10:28:27;;;;;;;;;;;;;;;24.98;46.05;94836.06;4893191;29;7283;-60
2022/10/04 10:31:19;;;;;;;;;;;;;;;24.99;46.00;94834.81;4889845;29;9706;-60
2022/10/04 10:34:22;;;;;;;;;;;;;;;24.98;46.44;94836.06;4891928;29;7186;-60
2022/10/04 10:37:09;;;;;;;;;;;;;;;24.95;46.33;94831.53;4882718;29;7225;-60
2022/10/04 10:39:52;;;;;;;;;;;;;;;24.93;46.37;94840.31;4934615;28;7266;-60
2022/10/04 10:43:05;;;;;;;;;;;;;;;24.91;46.77;94837.28;4951430;28;8529;-60
2022/10/04 10:46:09;;;;;;;;;;;;;;;24.93;46.47;94839.53;4910539;29;9250;-60
2022/10/04 10:48:56;;;;;;;;;;;;;;;24.93;46.26;94828.53;4951439;28;8358;-60
2022/10/04 10:51:24;;;;;;;;;;;;;;;24.93;47.00;94837.53;4953565;28;7277;-60
2022/10/04 10:54:09;;;;;;;;;;;;;;;24.90;45.15;94835.81;4967557;28;9225;-60
2022/10/04 10:56:54;;;;;;;;;;;;;;;24.87;43.78;94827.78;4968274;28;7451;-61
2022/10/04 11:00:16;;;;;;;;;;;;;;;24.84;41.77;94823.28;4962119;28;9199;-60
2022/10/04 11:03:16;;;;;;;;;;;;;;;24.84;41.96;94821.25;4963329;28;7152;-60
2022/10/04 11:06:12;;;;;;;;;;;;;;;24.89;41.96;94825.28;4949491;28;7011;-60
2022/10/04 11:09:03;;;;;;;;;;;;;;;24.88;42.03;94832.03;4950629;28;9077;-60
2022/10/04 11:12:08;;;;;;;;;;;;;;;24.89;41.53;94825.28;4969344;28;9190;-60
2022/10/04 11:15:01;;;;;;;;;;;;;;;24.93;42.32;94823.03;4969815;28;7464;-59
2022/10/04 11:18:01;;;;;;;;;;;;;;;24.96;41.74;94824.81;4952756;28;10151;-61
2022/10/04 11:20:40;;;;;;;;;;;;;;;24.97;41.57;94820.81;4960184;28;9053;-60
2022/10/04 11:23:27;;;;;;;;;;;;;;;24.98;41.42;94827.81;5045312;28;7243;-60
2022/10/04 11:26:12;;;;;;;;;;;;;;;24.97;42.29;94827.03;5036447;28;7299;-60
2022/10/04 11:29:16;;;;;;;;;;;;;;;24.93;42.65;94812.78;5049248;28;7093;-60
2022/10/04 11:32:00;;;;;;;;;;;;;;;24.95;42.41;94812.28;5011926;28;7490;-60
2022/10/04 11:34:59;;;;;;;;;;;;;;;24.97;42.71;94796.03;5010733;28;8902;-60
2022/10/04 11:38:03;;;;;;;;;;;;;;;24.98;41.80;94794.78;5019236;28;9623;-60
2022/10/04 11:40:38;;;;;;;;;;;;;;;24.98;42.29;94803.78;4999057;28;7347;-60
2022/10/04 11:43:23;;;;;;;;;;;;;;;24.98;42.31;94803.03;5005746;28;7423;-60
2022/10/04 11:46:34;;;;;;;;;;;;;;;24.96;43.78;94811.03;5011359;28;7263;-60
2022/10/04 11:49:39;;;;;;;;;;;;;;;24.97;44.64;94807.06;5009639;28;7274;-60
2022/10/04 11:52:29;;;;;;;;;;;;;;;24.95;44.30;94798.53;5014837;28;7175;-60
2022/10/04 11:55:08;;;;;;;;;;;;;;;25.00;44.79;94800.53;5020456;28;9343;-60
2022/10/04 11:57:42;;;;;;;;;;;;;;;25.02;44.05;94790.53;5008613;28;9331;-60
2022/10/04 12:00:20;;;;;;;;;;;;;;;25.07;44.01;94806.31;5012672;28;9781;-60
2022/10/04 12:03:37;;;;;;;;;;;;;;;25.08;43.70;94804.31;5005686;28;9316;-60
2022/10/04 12:06:06;;;;;;;;;;;;;;;25.09;43.90;94798.31;5007113;28;6990;-60
2022/10/04 12:08:52;;;;;;;;;;;;;;;25.11;44.20;94792.31;5031281;28;7674;-60
2022/10/04 12:14:25;;;;;;;;;;;;;;;25.15;43.76;94801.81;5065759;28;7240;-60
2022/10/04 12:17:08;;;;;;;;;;;;;;;25.14;45.24;94800.31;5062206;28;7374;-60
2022/10/04 12:20:13;;;;;;;;;;;;;;;25.12;44.85;94794.56;5052096;28;9154;-60
2022/10/04 12:23:12;;;;;;;;;;;;;;;25.13;44.90;94792.56;5038329;28;7162;-60
2022/10/04 12:25:59;;;;;;;;;;;;;;;25.17;44.66;94798.56;5044794;28;6998;-60
2022/10/04 12:28:50;;;;;;;;;;;;;;;25.19;45.14;94793.31;5061161;28;7266;-60
2022/10/04 12:31:27;;;;;;;;;;;;;;;25.20;45.23;94786.56;5052769;28;6982;-61
2022/10/04 12:34:25;;;;;;;;;;;;;;;25.21;45.07;94779.81;5070859;28;8979;-60
2022/10/04 12:37:03;;;;;;;;;;;;;;;25.24;44.20;94770.56;5050006;28;9039;-60
2022/10/04 12:39:50;;;;;;;;;;;;;;;25.26;44.94;94762.53;5047952;28;7564;-60
2022/10/04 12:42:25;;;;;;;;;;;;;;;25.27;44.78;94770.28;5047143;28;7302;-60
2022/10/04 12:45:17;;;;;;;;;;;;;;;25.28;44.43;94771.81;5069492;28;9002;-60
2022/10/04 12:48:02;;;;;;;;;;;;;;;25.29;44.53;94780.84;5044465;28;9762;-60
2022/10/04 12:51:05;;;;;;;;;;;;;;;25.29;44.59;94773.31;5052000;28;7044;-60
2022/10/04 12:54:15;;;;;;;;;;;;;;;25.31;45.37;94767.31;5059139;28;7623;-60
2022/10/04 12:57:06;;;;;;;;;;;;;;;25.34;44.66;94766.28;5043000;28;7236;-60
2022/10/04 13:00:15;;;;;;;;;;;;;;;25.34;44.84;94769.06;5053184;28;7234;-60
2022/10/04 13:03:18;;;;;;;;;;;;;;;25.36;45.66;94775.56;5044339;28;9495;-60
2022/10/04 13:06:05;;;;;;;;;;;;;;;25.39;45.62;94771.81;5045568;28;7517;-60
2022/10/04 13:08:45;;;;;;;;;;;;;;;25.39;45.67;94771.81;5066287;28;7607;-60
2022/10/04 13:11:51;;;;;;;;;;;;;;;25.40;45.42;94772.59;5046045;28;9408;-60
2022/10/04 13:15:05;;;;;;;;;;;;;;;25.44;44.91;94775.88;5050378;28;9080;-60
2022/10/04 13:18:11;;;;;;;;;;;;;;;25.47;45.75;94765.84;5011582;28;8469;-60
2022/10/04 13:21:17;;;;;;;;;;;;;;;25.50;45.00;94770.34;4930317;29;7199;-60
2022/10/04 13:24:06;;;;;;;;;;;;;;;25.52;44.95;94773.34;4931499;28;7619;-60
2022/10/04 13:27:01;;;;;;;;;;;;;;;25.52;44.92;94765.84;4925297;29;9424;-60
2022/10/04 13:29:34;;;;;;;;;;;;;;;25.54;45.91;94768.09;4936250;28;7470;-60
2022/10/04 13:32:31;;;;;;;;;;;;;;;25.56;45.27;94760.81;4913237;28;7301;-60
2022/10/04 13:35:12;;;;;;;;;;;;;;;25.59;45.10;94762.59;4916242;29;7628;-60
2022/10/04 13:38:26;;;;;;;;;;;;;;;25.61;44.97;94760.09;4935142;28;7221;-60
2022/10/04 13:40:55;;;;;;;;;;;;;;;25.64;45.42;94761.09;4914198;29;7097;-60
2022/10/04 13:43:55;;;;;;;;;;;;;;;25.67;45.29;94766.34;4915777;29;7254;-59
2022/10/04 13:47:15;;;;;;;;;;;;;;;25.70;45.87;94768.09;4918716;28;8556;-60
2022/10/04 13:49:56;;;;;;;;;;;;;;;25.70;46.01;94768.09;4879453;29;7307;-60
2022/10/04 13:59:23;;;;;;;;;;;;;;;25.82;45.63;94763.28;4990379;28;9469;-59
2022/10/04 14:02:11;;;;;;;;;;;;;;;25.86;45.54;94759.03;4974931;28;8492;-60
2022/10/04 14:05:10;;;;;;;;;;;;;;;25.89;45.10;94768.31;4977323;28;7014;-60
2022/10/04 14:08:22;;;;;;;;;;;;;;;25.92;45.39;94772.81;4990701;28;7361;-60
2022/10/04 14:11:09;;;;;;;;;;;;;;;25.95;45.58;94767.03;4975682;28;7056;-60
2022/10/04 14:14:09;;;;;;;;;;;;;;;25.97;44.79;94770.03;4985053;28;8688;-60
2022/10/04 14:17:24;;;;;;;;;;;;;;;26.00;45.65;94769.03;4982886;28;9041;-60
2022/10/04 14:20:07;;;;;;;;;;;;;;;26.03;44.75;94776.28;4989997;28;7109;-60
2022/10/04 14:26:03;;;;;;;;;;;;;;;26.07;44.70;94779.56;5055652;28;7280;-60
2022/10/04 14:28:57;;;;;;;;;;;;;;;26.10;45.13;94784.06;5064706;28;9080;-60
2022/10/04 14:31:57;;;;;;;;;;;;;;;26.12;45.09;94781.56;5043999;28;7069;-60
2022/10/04 14:34:41;;;;;;;;;;;;;;;26.16;45.27;94786.84;5069800;28;7126;-59
2022/10/04 14:37:50;;;;;;;;;;;;;;;26.19;45.08;94783.06;5044780;28;9181;-60
2022/10/04 14:40:53;;;;;;;;;;;;;;;26.23;45.07;94780.06;5054889;28;7193;-59
2022/10/04 14:43:28;;;;;;;;;;;;;;;26.23;44.53;94780.78;5049452;28;8260;-59
2022/10/04 14:46:32;;;;;;;;;;;;;;;26.27;45.35;94777.78;5064664;28;7247;-59
2022/10/04 14:48:57;;;;;;;;;;;;;;;26.29;45.03;94778.03;5048155;28;9312;-60
2022/10/04 14:52:07;;;;;;;;;;;;;;;26.33;45.53;94784.03;5066775;28;7660;-60
2022/10/04 14:54:55;;;;;;;;;;;;;;;26.35;44.51;94782.25;5036707;28;7295;-60
2022/10/04 14:57:50;;;;;;;;;;;;;;;26.38;45.05;94780.50;5045847;28;7220;-60
2022/10/04 15:00:20;;;;;;;;;;;;;;;26.41;44.96;94785.75;5046285;28;7351;-61
2022/10/04 15:03:16;;;;;;;;;;;;;;;26.43;44.98;94790.75;5046222;28;7247;-61
2022/10/04 15:05:48;;;;;;;;;;;;;;;26.46;45.20;94781.47;5055914;28;9406;-60
2022/10/04 15:08:20;;;;;;;;;;;;;;;26.48;45.14;94784.47;5041369;28;8900;-60
2022/10/04 15:10:56;;;;;;;;;;;;;;;26.51;44.41;94777.94;5065931;28;7368;-60
2022/10/04 15:13:37;;;;;;;;;;;;;;;26.53;45.07;94780.94;5037674;28;9491;-61
2022/10/04 15:16:32;;;;;;;;;;;;;;;26.55;44.69;94776.44;5042462;28;7194;-60